Time;durP1;ratioP1;P1;durP2;ratioP2;P2;SDS_P1;SDS_P2;PMS_P1;PMS_P2;Temp;Humidity;BMP_temperature;BMP_pressure;BME280_temperature;BME280_humidity;BME280_pressure;Samples;Min_cycle;Max_cycle;Signal;HPM_P1;HPM_P2
2021/07/30 00:01:17;;;;;;;12.03;2.83;;;12.40;97.80;;;;;;5054389;28;20651;-68
2021/07/30 00:03:44;;;;;;;12.87;2.93;;;12.40;98.10;;;;;;5053571;28;20250;-66
2021/07/30 00:06:11;;;;;;;15.47;2.30;;;12.50;97.60;;;;;;5053933;28;20188;-67
2021/07/30 00:08:39;;;;;;;10.03;2.83;;;12.40;97.60;;;;;;5053222;28;20638;-66
2021/07/30 00:11:08;;;;;;;14.20;3.47;;;12.60;97.70;;;;;;5053845;28;20211;-66
2021/07/30 00:13:35;;;;;;;13.20;2.30;;;12.60;97.40;;;;;;5053042;28;20183;-67
2021/07/30 00:16:03;;;;;;;15.33;3.27;;;12.70;96.80;;;;;;5048894;28;20713;-66
2021/07/30 00:18:30;;;;;;;10.43;2.50;;;12.80;96.60;;;;;;5053553;28;20172;-69
2021/07/30 00:20:57;;;;;;;16.97;3.57;;;12.80;96.10;;;;;;5053795;28;20176;-70
2021/07/30 00:23:24;;;;;;;8.50;2.63;;;12.90;96.20;;;;;;5054096;28;20274;-68
2021/07/30 00:25:52;;;;;;;11.07;2.77;;;13.00;96.40;;;;;;5053345;28;20201;-69
2021/07/30 00:28:19;;;;;;;9.33;2.30;;;13.10;96.10;;;;;;5038775;28;20184;-70
2021/07/30 00:30:47;;;;;;;7.73;2.97;;;13.20;96.10;;;;;;5051983;28;20203;-70
2021/07/30 00:33:14;;;;;;;11.53;2.70;;;13.30;95.90;;;;;;5051912;28;20212;-69
2021/07/30 00:35:41;;;;;;;10.50;3.13;;;13.30;95.70;;;;;;5040233;28;20226;-69
2021/07/30 00:38:08;;;;;;;10.43;2.20;;;13.40;95.50;;;;;;5043898;28;20191;-70
2021/07/30 00:40:36;;;;;;;7.77;2.20;;;13.50;95.40;;;;;;5053131;28;20179;-70
2021/07/30 00:43:06;;;;;;;11.97;2.43;;;13.70;95.00;;;;;;5052353;28;20180;-66
2021/07/30 00:45:33;;;;;;;7.90;2.17;;;13.70;94.60;;;;;;5053834;28;20229;-67
2021/07/30 00:48:01;;;;;;;9.87;2.50;;;13.80;94.00;;;;;;5053679;28;20270;-68
2021/07/30 00:50:28;;;;;;;6.53;2.43;;;13.80;93.60;;;;;;5053651;28;20180;-68
2021/07/30 00:52:56;;;;;;;8.13;2.50;;;13.80;94.00;;;;;;5052779;28;20616;-70
2021/07/30 00:55:24;;;;;;;11.50;2.20;;;13.90;94.00;;;;;;5053306;28;20258;-66
2021/07/30 00:57:55;;;;;;;9.27;2.40;;;13.90;92.90;;;;;;5052607;28;20240;-68
2021/07/30 01:00:22;;;;;;;8.87;2.40;;;14.00;93.20;;;;;;5052649;28;20184;-68
2021/07/30 01:02:50;;;;;;;10.83;2.97;;;14.10;93.20;;;;;;5053690;28;20538;-67
2021/07/30 01:05:20;;;;;;;13.70;2.97;;;14.20;93.40;;;;;;5050105;28;20612;-67
2021/07/30 01:07:47;;;;;;;13.57;2.90;;;14.30;93.30;;;;;;5041043;28;20598;-66
2021/07/30 01:10:15;;;;;;;5.73;2.50;;;14.50;92.70;;;;;;5033525;28;20207;-66
2021/07/30 01:12:44;;;;;;;8.10;2.60;;;14.60;92.60;;;;;;5050488;28;20168;-65
2021/07/30 01:15:11;;;;;;;8.77;2.40;;;14.70;92.00;;;;;;5050059;28;20607;-66
2021/07/30 01:17:39;;;;;;;8.30;2.83;;;14.60;91.50;;;;;;5050961;28;20215;-69
2021/07/30 01:20:08;;;;;;;10.97;3.17;;;14.80;91.40;;;;;;5052936;28;20160;-69
2021/07/30 01:22:47;;;;;;;8.17;2.63;;;14.90;90.20;;;;;;5051900;28;20233;-68
2021/07/30 01:25:14;;;;;;;8.33;2.87;;;15.00;90.00;;;;;;5046582;28;20176;-68
2021/07/30 01:27:41;;;;;;;8.13;2.47;;;15.10;89.70;;;;;;5052507;28;20176;-66
2021/07/30 01:30:09;;;;;;;11.47;2.80;;;15.30;88.40;;;;;;5052160;28;20180;-65
2021/07/30 01:32:37;;;;;;;11.33;2.90;;;15.50;88.50;;;;;;5051551;28;20230;-66
2021/07/30 01:35:04;;;;;;;9.07;2.57;;;15.40;88.60;;;;;;5039598;28;20212;-68
2021/07/30 01:37:35;;;;;;;15.23;2.83;;;15.40;87.90;;;;;;5052388;28;20176;-66
2021/07/30 01:40:03;;;;;;;12.33;2.43;;;15.60;87.20;;;;;;5040496;28;20184;-67
2021/07/30 01:42:30;;;;;;;9.33;2.33;;;15.80;87.30;;;;;;5040069;28;20181;-68
2021/07/30 01:44:58;;;;;;;7.53;2.37;;;15.60;86.10;;;;;;5050794;28;20175;-67
2021/07/30 01:47:27;;;;;;;9.40;2.40;;;15.80;86.50;;;;;;5052132;28;20712;-69
2021/07/30 01:49:54;;;;;;;6.33;1.93;;;16.00;84.10;;;;;;5050498;28;20583;-68
2021/07/30 01:52:22;;;;;;;7.07;1.83;;;16.00;79.60;;;;;;5051338;28;20574;-67
2021/07/30 01:54:49;;;;;;;6.97;2.30;;;16.20;78.80;;;;;;5052010;28;20195;-66
2021/07/30 01:57:18;;;;;;;7.63;2.40;;;16.60;79.20;;;;;;5051760;28;20194;-66
2021/07/30 01:59:45;;;;;;;9.40;2.47;;;16.90;79.30;;;;;;5045500;28;20178;-67
2021/07/30 02:02:13;;;;;;;7.20;2.03;;;16.90;78.30;;;;;;5051040;28;20581;-68
2021/07/30 02:04:40;;;;;;;6.30;2.23;;;17.10;76.60;;;;;;5048842;28;20180;-67
2021/07/30 02:07:07;;;;;;;11.60;1.83;;;16.90;76.60;;;;;;5049643;28;20183;-66
2021/07/30 02:09:35;;;;;;;5.80;2.00;;;17.20;76.30;;;;;;5043639;28;20643;-66
2021/07/30 02:12:02;;;;;;;4.07;1.80;;;17.20;74.80;;;;;;5049106;28;20332;-66
2021/07/30 02:14:30;;;;;;;9.53;1.67;;;17.20;74.00;;;;;;5050400;28;20214;-66
2021/07/30 02:16:58;;;;;;;6.37;1.80;;;17.40;71.70;;;;;;5051118;28;20221;-65
2021/07/30 02:19:26;;;;;;;5.77;1.50;;;17.60;70.30;;;;;;5050673;28;20210;-66
2021/07/30 02:21:56;;;;;;;6.10;1.70;;;17.80;69.30;;;;;;5043909;28;20642;-65
2021/07/30 02:24:24;;;;;;;6.07;1.53;;;17.50;67.90;;;;;;5048396;28;20210;-66
2021/07/30 02:26:53;;;;;;;3.60;1.43;;;17.50;66.10;;;;;;5051049;28;20184;-66
2021/07/30 02:29:21;;;;;;;6.00;1.40;;;17.70;65.60;;;;;;5048175;28;20676;-65
2021/07/30 02:31:49;;;;;;;7.00;1.27;;;17.80;66.60;;;;;;5050451;28;20685;-69
2021/07/30 02:34:16;;;;;;;5.60;1.83;;;18.10;66.30;;;;;;5043723;28;20208;-68
2021/07/30 02:36:44;;;;;;;7.57;1.90;;;18.70;65.70;;;;;;5049822;28;20203;-68
2021/07/30 02:39:13;;;;;;;6.03;1.53;;;18.60;65.20;;;;;;5050224;28;20183;-65
2021/07/30 02:41:40;;;;;;;6.43;1.60;;;18.80;64.50;;;;;;5042766;28;20206;-67
2021/07/30 02:44:07;;;;;;;5.90;1.60;;;18.60;65.10;;;;;;5044465;28;20187;-68
2021/07/30 02:46:35;;;;;;;6.33;1.90;;;18.30;67.20;;;;;;5049388;28;20245;-69
2021/07/30 02:49:02;;;;;;;5.57;1.60;;;18.20;66.70;;;;;;5050324;28;20266;-68
2021/07/30 02:51:29;;;;;;;7.33;2.00;;;18.10;66.10;;;;;;5048979;28;20191;-71
2021/07/30 02:53:57;;;;;;;5.57;1.93;;;18.10;67.70;;;;;;5050709;28;20195;-66
2021/07/30 02:56:24;;;;;;;9.23;1.60;;;18.70;66.90;;;;;;5048075;28;20685;-70
2021/07/30 02:58:51;;;;;;;6.07;1.73;;;18.60;67.20;;;;;;5042785;28;20585;-67
2021/07/30 03:01:19;;;;;;;8.83;2.00;;;18.70;66.50;;;;;;5048888;28;20184;-68
2021/07/30 03:03:46;;;;;;;5.37;1.90;;;19.00;66.60;;;;;;5054170;28;20619;-68
2021/07/30 03:06:13;;;;;;;8.60;1.67;;;19.60;65.70;;;;;;5054431;28;20619;-69
2021/07/30 03:08:41;;;;;;;3.90;1.80;;;19.50;64.70;;;;;;5050637;28;20275;-69
2021/07/30 03:11:08;;;;;;;7.83;3.33;;;19.30;65.60;;;;;;5041176;28;20191;-68
2021/07/30 03:13:35;;;;;;;8.17;1.60;;;19.80;64.70;;;;;;5053650;28;20180;-67
2021/07/30 03:16:04;;;;;;;7.33;1.83;;;19.30;65.00;;;;;;5054234;28;20831;-68
2021/07/30 03:18:32;;;;;;;8.90;2.47;;;19.60;65.10;;;;;;5050636;28;20199;-70
2021/07/30 03:21:00;;;;;;;10.77;2.63;;;20.20;64.70;;;;;;5051008;28;20579;-70
2021/07/30 03:23:27;;;;;;;11.40;2.23;;;20.10;63.60;;;;;;5053340;28;20211;-70
2021/07/30 03:25:54;;;;;;;10.57;1.90;;;20.00;64.50;;;;;;5043006;28;20235;-68
2021/07/30 03:28:22;;;;;;;7.13;1.87;;;19.30;65.00;;;;;;5050940;28;20180;-68
2021/07/30 03:30:49;;;;;;;4.43;2.07;;;19.10;66.70;;;;;;5052815;28;20609;-70
2021/07/30 03:33:17;;;;;;;7.23;1.87;;;18.40;66.20;;;;;;5045490;28;20224;-69
2021/07/30 03:35:44;;;;;;;5.30;1.77;;;18.70;67.90;;;;;;5047716;28;20622;-70
2021/07/30 03:38:11;;;;;;;6.17;1.70;;;19.50;66.20;;;;;;5055328;28;20235;-68
2021/07/30 03:40:39;;;;;;;10.00;1.90;;;20.20;65.10;;;;;;5053404;28;20583;-68
2021/07/30 03:43:06;;;;;;;10.30;1.77;;;19.40;64.30;;;;;;5053438;28;20176;-68
2021/07/30 03:45:33;;;;;;;7.00;1.90;;;19.70;65.90;;;;;;5057311;28;20523;-67
2021/07/30 03:48:01;;;;;;;9.00;2.23;;;20.20;65.20;;;;;;5051821;28;20202;-68
2021/07/30 03:50:28;;;;;;;6.13;1.63;;;19.80;65.20;;;;;;5051123;28;20630;-70
2021/07/30 03:52:59;;;;;;;7.47;1.73;;;19.40;65.90;;;;;;5045803;28;20184;-68
2021/07/30 03:55:26;;;;;;;16.70;2.17;;;19.60;66.00;;;;;;5050299;28;20330;-66
2021/07/30 03:57:54;;;;;;;5.67;1.50;;;20.10;64.90;;;;;;5053406;28;20203;-67
2021/07/30 04:00:21;;;;;;;5.27;1.70;;;20.30;64.70;;;;;;5052314;28;20657;-68
2021/07/30 04:02:48;;;;;;;8.47;1.97;;;21.00;64.30;;;;;;5053202;28;20191;-67
2021/07/30 04:05:16;;;;;;;5.83;1.67;;;20.70;65.70;;;;;;5051007;28;20188;-67
2021/07/30 04:07:43;;;;;;;9.27;2.30;;;20.70;67.60;;;;;;5053079;28;20180;-69
2021/07/30 04:10:11;;;;;;;8.77;1.83;;;21.30;66.20;;;;;;5054204;28;20184;-68
2021/07/30 04:12:38;;;;;;;6.23;1.67;;;21.50;65.70;;;;;;5053351;28;20180;-67
2021/07/30 04:15:06;;;;;;;13.67;2.13;;;21.20;66.40;;;;;;5051746;28;20273;-67
2021/07/30 04:17:33;;;;;;;9.40;2.10;;;21.20;67.20;;;;;;5050107;28;20184;-67
2021/07/30 04:20:00;;;;;;;4.27;1.63;;;20.10;68.60;;;;;;5053359;28;20191;-67
2021/07/30 04:22:28;;;;;;;5.37;1.70;;;19.90;69.20;;;;;;5051181;28;20184;-70
2021/07/30 04:24:56;;;;;;;9.63;1.97;;;19.60;70.50;;;;;;5045033;28;20219;-69
2021/07/30 04:27:23;;;;;;;8.33;1.83;;;19.60;72.30;;;;;;5053660;28;20654;-67
2021/07/30 04:29:50;;;;;;;8.13;2.40;;;20.80;69.90;;;;;;5048926;28;20187;-68
2021/07/30 04:32:17;;;;;;;12.67;2.17;;;21.50;68.20;;;;;;5052532;28;20694;-68
2021/07/30 04:34:45;;;;;;;8.90;1.97;;;21.10;67.80;;;;;;5041581;28;20180;-70
2021/07/30 04:37:12;;;;;;;5.70;1.80;;;19.90;70.40;;;;;;5053081;28;20191;-68
2021/07/30 04:39:39;;;;;;;10.53;2.63;;;19.50;72.70;;;;;;5053622;28;20187;-69
2021/07/30 04:42:07;;;;;;;6.40;1.60;;;20.00;71.90;;;;;;5052924;28;20192;-71
2021/07/30 04:44:34;;;;;;;8.63;3.97;;;19.80;71.90;;;;;;5053295;28;20172;-69
2021/07/30 04:47:02;;;;;;;11.53;2.43;;;20.30;72.00;;;;;;5035637;28;20215;-70
2021/07/30 04:49:30;;;;;;;6.70;2.67;;;20.30;71.70;;;;;;5052678;28;20307;-69
2021/07/30 04:51:57;;;;;;;7.47;1.70;;;20.30;72.60;;;;;;5052680;28;20180;-69
2021/07/30 04:54:24;;;;;;;7.93;2.20;;;19.90;73.30;;;;;;5053010;28;20175;-69
2021/07/30 04:56:52;;;;;;;5.53;2.00;;;20.90;71.80;;;;;;5052730;28;20203;-68
2021/07/30 04:59:19;;;;;;;10.30;2.00;;;21.40;70.90;;;;;;5049973;28;20184;-68
2021/07/30 05:01:46;;;;;;;6.00;1.77;;;21.20;70.50;;;;;;5052570;28;20218;-68
2021/07/30 05:04:14;;;;;;;5.43;1.70;;;21.00;70.20;;;;;;5052667;28;20634;-70
2021/07/30 05:06:41;;;;;;;6.63;1.80;;;20.90;71.50;;;;;;5051103;28;20237;-70
2021/07/30 05:09:08;;;;;;;5.10;1.63;;;21.40;70.80;;;;;;5053081;28;20183;-70
2021/07/30 05:11:36;;;;;;;6.53;1.70;;;20.90;70.90;;;;;;5052790;28;20180;-70
2021/07/30 05:14:04;;;;;;;3.87;1.70;;;21.30;71.40;;;;;;5052891;28;20685;-70
2021/07/30 05:16:31;;;;;;;6.07;1.27;;;22.00;70.00;;;;;;5052847;28;20226;-69
2021/07/30 05:18:58;;;;;;;5.00;1.50;;;22.00;69.30;;;;;;5049623;28;20562;-70
2021/07/30 05:21:26;;;;;;;5.83;1.70;;;22.50;69.30;;;;;;5052448;28;20232;-69
2021/07/30 05:23:54;;;;;;;4.05;1.40;;;22.00;69.20;;;;;;5050383;28;20410;-69
2021/07/30 05:26:21;;;;;;;4.10;1.30;;;21.60;70.60;;;;;;5051973;28;20252;-68
2021/07/30 05:28:48;;;;;;;4.57;1.43;;;22.00;70.30;;;;;;5047571;28;20185;-70
2021/07/30 05:31:18;;;;;;;2.60;1.23;;;22.40;69.20;;;;;;5050110;28;20266;-69
2021/07/30 05:33:46;;;;;;;3.80;1.20;;;22.40;68.80;;;;;;5051796;28;20176;-68
2021/07/30 05:36:18;;;;;;;3.33;1.23;;;22.60;68.80;;;;;;5040519;28;20210;-69
2021/07/30 05:38:46;;;;;;;6.23;1.53;;;22.50;69.00;;;;;;5051948;28;20567;-68
2021/07/30 05:41:15;;;;;;;4.37;1.43;;;22.10;69.30;;;;;;5052860;28;20537;-69
2021/07/30 05:43:44;;;;;;;5.23;1.40;;;21.70;70.90;;;;;;5052206;28;20172;-68
2021/07/30 05:46:18;;;;;;;5.10;1.10;;;21.70;71.00;;;;;;5051459;28;20187;-69
2021/07/30 05:48:47;;;;;;;3.33;1.10;;;21.70;71.60;;;;;;5046691;28;20221;-68
2021/07/30 05:51:15;;;;;;;7.43;1.50;;;21.40;71.70;;;;;;5042454;28;20184;-68
2021/07/30 05:53:42;;;;;;;4.90;1.10;;;21.40;72.30;;;;;;5051056;28;20630;-68
2021/07/30 05:56:09;;;;;;;3.73;1.10;;;21.60;72.90;;;;;;5052199;28;20662;-68
2021/07/30 05:58:37;;;;;;;4.87;1.30;;;21.60;72.50;;;;;;5051559;28;20176;-68
2021/07/30 06:01:04;;;;;;;5.67;1.50;;;21.30;73.70;;;;;;5050657;28;20183;-68
2021/07/30 06:03:31;;;;;;;8.03;2.00;;;21.40;74.30;;;;;;5042210;28;20190;-68
2021/07/30 06:05:59;;;;;;;7.07;1.23;;;21.40;74.10;;;;;;5047361;28;20556;-69
2021/07/30 06:08:26;;;;;;;7.37;1.50;;;21.50;74.20;;;;;;5050088;28;20172;-67
2021/07/30 06:10:53;;;;;;;7.13;1.97;;;21.50;74.40;;;;;;5040286;28;20203;-68
2021/07/30 06:13:21;;;;;;;6.60;1.73;;;21.20;75.10;;;;;;5051913;28;20176;-68
2021/07/30 06:15:48;;;;;;;7.67;2.40;;;21.30;74.40;;;;;;5050530;28;20571;-69
2021/07/30 06:18:15;;;;;;;8.13;1.90;;;20.60;75.90;;;;;;5053378;28;20183;-67
2021/07/30 06:20:43;;;;;;;10.80;2.03;;;19.80;77.80;;;;;;5047040;28;20202;-68
2021/07/30 06:23:10;;;;;;;8.33;2.23;;;19.40;79.50;;;;;;5044580;28;20187;-67
2021/07/30 06:25:37;;;;;;;10.90;2.70;;;19.00;80.90;;;;;;5051544;28;20188;-67
2021/07/30 06:28:05;;;;;;;7.20;2.20;;;18.60;83.10;;;;;;5047690;28;20614;-67
2021/07/30 06:30:32;;;;;;;6.97;1.30;;;18.00;84.90;;;;;;5053155;28;21906;-70
2021/07/30 06:32:59;;;;;;;6.47;1.30;;;17.90;86.50;;;;;;5062991;28;20269;-68
2021/07/30 06:35:27;;;;;;;7.77;2.00;;;17.60;87.90;;;;;;5049294;28;20253;-68
2021/07/30 06:37:54;;;;;;;8.23;1.90;;;17.60;87.80;;;;;;5055575;28;20200;-68
2021/07/30 06:40:22;;;;;;;6.63;1.60;;;17.30;89.30;;;;;;5055905;28;20186;-67
2021/07/30 06:42:49;;;;;;;5.03;1.60;;;17.10;90.20;;;;;;5057390;28;20290;-68
2021/07/30 06:45:16;;;;;;;8.47;1.60;;;17.00;90.70;;;;;;5055262;28;20542;-69
2021/07/30 06:47:44;;;;;;;7.53;1.60;;;16.90;91.00;;;;;;5052080;28;20270;-67
2021/07/30 06:50:11;;;;;;;6.10;2.03;;;16.80;91.70;;;;;;5042083;28;20216;-68
2021/07/30 06:52:39;;;;;;;3.43;1.30;;;16.70;91.70;;;;;;5056269;28;20197;-67
2021/07/30 06:55:06;;;;;;;7.93;2.00;;;16.60;92.30;;;;;;5048162;28;20202;-68
2021/07/30 06:57:34;;;;;;;6.17;1.77;;;16.50;92.60;;;;;;5060036;28;20241;-68
2021/07/30 07:00:01;;;;;;;6.83;1.60;;;16.40;92.90;;;;;;5054806;28;20193;-67
2021/07/30 07:02:29;;;;;;;5.07;1.50;;;16.30;93.40;;;;;;5055630;28;20179;-67
2021/07/30 07:04:56;;;;;;;9.13;2.60;;;16.20;93.90;;;;;;5054791;28;20707;-66
2021/07/30 07:07:24;;;;;;;9.47;1.63;;;16.10;94.50;;;;;;5052312;28;20189;-68
2021/07/30 07:09:54;;;;;;;7.37;1.50;;;16.00;95.00;;;;;;5053594;28;20187;-69
2021/07/30 07:12:21;;;;;;;6.83;1.70;;;15.90;95.40;;;;;;5055048;28;20188;-68
2021/07/30 07:14:49;;;;;;;4.87;1.70;;;15.80;95.70;;;;;;5054340;28;20237;-68
2021/07/30 07:17:18;;;;;;;9.47;1.70;;;15.70;96.10;;;;;;5047023;28;20203;-67
2021/07/30 07:19:46;;;;;;;4.40;1.70;;;15.70;96.70;;;;;;5043782;28;20652;-67
2021/07/30 07:22:13;;;;;;;4.07;1.30;;;15.60;96.90;;;;;;5058362;28;20181;-67
2021/07/30 07:24:41;;;;;;;6.67;2.00;;;15.50;97.30;;;;;;5058147;28;20267;-67
2021/07/30 07:27:09;;;;;;;7.17;1.97;;;15.40;97.70;;;;;;5054532;28;20183;-67
2021/07/30 07:29:36;;;;;;;9.57;2.00;;;15.30;98.00;;;;;;5055014;28;20268;-68
2021/07/30 07:32:04;;;;;;;6.93;1.53;;;15.20;98.20;;;;;;5054883;28;20631;-67
2021/07/30 07:34:31;;;;;;;7.47;1.93;;;15.10;98.30;;;;;;5053753;28;20820;-68
2021/07/30 07:36:58;;;;;;;5.20;1.57;;;15.20;98.60;;;;;;5042455;28;20207;-67
2021/07/30 07:39:26;;;;;;;5.20;1.47;;;15.10;98.50;;;;;;5050916;28;20188;-67
2021/07/30 07:41:53;;;;;;;7.90;1.80;;;15.00;98.60;;;;;;5053481;28;20284;-67
2021/07/30 07:44:20;;;;;;;5.63;1.50;;;14.90;98.40;;;;;;5056830;28;20585;-70
2021/07/30 07:46:48;;;;;;;6.57;1.60;;;14.90;98.80;;;;;;5052934;28;20197;-68
2021/07/30 07:49:15;;;;;;;9.90;2.33;;;14.80;98.90;;;;;;5048607;28;20661;-68
2021/07/30 07:51:42;;;;;;;5.80;1.50;;;14.80;98.90;;;;;;5054227;28;20630;-68
2021/07/30 07:54:10;;;;;;;8.47;1.70;;;14.80;99.00;;;;;;5054346;28;20241;-68
2021/07/30 07:56:37;;;;;;;6.50;1.67;;;14.70;99.10;;;;;;5054439;28;20721;-67
2021/07/30 07:59:05;;;;;;;9.27;1.60;;;14.70;99.20;;;;;;5060474;28;20184;-67
2021/07/30 08:01:32;;;;;;;5.87;1.57;;;14.70;99.30;;;;;;5057610;28;20207;-67
2021/07/30 08:04:01;;;;;;;7.27;1.87;;;14.70;99.30;;;;;;5057443;28;20948;-68
2021/07/30 08:06:28;;;;;;;10.07;2.53;;;14.60;99.20;;;;;;5053953;28;20191;-67
2021/07/30 08:08:56;;;;;;;7.03;2.10;;;14.60;99.30;;;;;;5057856;28;20530;-67
2021/07/30 08:11:23;;;;;;;7.70;1.93;;;14.60;99.30;;;;;;5060729;28;20193;-67
2021/07/30 08:13:50;;;;;;;7.40;2.33;;;14.60;99.20;;;;;;5050610;28;20195;-67
2021/07/30 08:16:26;;;;;;;9.20;2.47;;;14.60;99.30;;;;;;5065022;28;20210;-68
2021/07/30 08:18:54;;;;;;;6.57;3.27;;;14.60;99.00;;;;;;5063386;28;20226;-67
2021/07/30 08:21:22;;;;;;;19.03;5.70;;;14.60;98.90;;;;;;5053766;28;20285;-67
2021/07/30 08:23:49;;;;;;;8.80;3.07;;;14.60;98.80;;;;;;5053965;28;20186;-67
2021/07/30 08:26:16;;;;;;;12.57;4.20;;;14.60;98.70;;;;;;5053981;28;20175;-67
2021/07/30 08:28:44;;;;;;;7.80;3.23;;;14.60;98.60;;;;;;5053799;28;20547;-67
2021/07/30 08:31:11;;;;;;;9.57;2.67;;;14.60;98.30;;;;;;5059241;28;20188;-67
2021/07/30 08:33:39;;;;;;;4.60;1.90;;;14.60;98.20;;;;;;5053728;28;20315;-67
2021/07/30 08:36:07;;;;;;;6.33;2.40;;;14.60;98.00;;;;;;5053454;28;20681;-67
2021/07/30 08:38:35;;;;;;;7.50;3.20;;;14.60;97.90;;;;;;5053920;28;20646;-68
2021/07/30 08:41:02;;;;;;;6.27;3.17;;;14.60;97.90;;;;;;5049717;28;20234;-65
2021/07/30 08:43:29;;;;;;;8.27;3.70;;;14.60;97.80;;;;;;5053839;28;20533;-68
2021/07/30 08:45:57;;;;;;;6.47;3.00;;;14.50;97.60;;;;;;5053363;28;20203;-69
2021/07/30 08:48:25;;;;;;;5.07;3.17;;;14.50;97.40;;;;;;5053508;28;20256;-68
2021/07/30 08:50:52;;;;;;;7.50;3.87;;;14.50;97.40;;;;;;5053027;28;20729;-67
2021/07/30 08:53:27;;;;;;;11.10;3.20;;;14.50;97.30;;;;;;5052345;28;20199;-66
2021/07/30 08:55:55;;;;;;;13.13;3.43;;;14.40;97.50;;;;;;5056698;28;20207;-67
2021/07/30 08:58:23;;;;;;;12.10;2.37;;;14.40;97.50;;;;;;5041076;28;20183;-67
2021/07/30 09:00:50;;;;;;;5.13;2.67;;;14.30;97.40;;;;;;5055641;28;20190;-66
2021/07/30 09:03:18;;;;;;;4.07;2.10;;;14.40;97.50;;;;;;5053841;28;20646;-67
2021/07/30 09:05:47;;;;;;;5.47;2.43;;;14.40;97.40;;;;;;5045783;28;20690;-68
2021/07/30 09:08:24;;;;;;;6.53;2.20;;;14.30;97.20;;;;;;5050605;28;20180;-67
2021/07/30 09:10:51;;;;;;;6.60;2.63;;;14.30;96.90;;;;;;5052922;28;20207;-68
2021/07/30 09:13:27;;;;;;;5.70;2.30;;;14.30;97.00;;;;;;5054471;28;20191;-67
2021/07/30 09:16:03;;;;;;;7.33;2.53;;;14.30;97.00;;;;;;5051664;28;20212;-68
2021/07/30 09:18:38;;;;;;;6.47;2.77;;;14.30;97.10;;;;;;5049935;28;20187;-67
2021/07/30 09:21:30;;;;;;;6.47;3.10;;;14.20;97.10;;;;;;5047387;28;20266;-68
2021/07/30 09:24:08;;;;;;;8.27;2.83;;;14.20;96.90;;;;;;5066838;28;20233;-67
2021/07/30 09:26:41;;;;;;;8.47;2.93;;;14.20;96.90;;;;;;5057323;28;20198;-69
2021/07/30 09:29:20;;;;;;;6.97;2.80;;;14.20;96.60;;;;;;5058284;28;20178;-68
2021/07/30 09:31:54;;;;;;;13.10;3.30;;;14.20;96.10;;;;;;5048076;28;20242;-66
2021/07/30 09:34:24;;;;;;;6.40;2.87;;;14.30;95.80;;;;;;5053879;28;20195;-66
2021/07/30 09:37:17;;;;;;;8.13;2.90;;;14.30;95.70;;;;;;5052285;28;20774;-68
2021/07/30 09:39:48;;;;;;;6.10;2.87;;;14.30;95.50;;;;;;5052829;28;20176;-67
2021/07/30 09:42:29;;;;;;;7.93;3.10;;;14.20;95.20;;;;;;5055942;28;20199;-67
2021/07/30 09:45:02;;;;;;;9.50;3.40;;;14.20;95.10;;;;;;5061297;28;20294;-67
2021/07/30 09:47:33;;;;;;;7.07;2.90;;;14.20;95.20;;;;;;5048527;28;20270;-69
2021/07/30 09:50:09;;;;;;;7.70;2.53;;;14.10;94.90;;;;;;5052537;28;20201;-68
2021/07/30 09:52:40;;;;;;;4.97;2.73;;;14.10;95.00;;;;;;5052569;28;20180;-67
2021/07/30 09:55:12;;;;;;;6.60;2.87;;;14.10;94.50;;;;;;5052755;28;20208;-69
2021/07/30 09:57:43;;;;;;;9.03;3.77;;;14.10;94.10;;;;;;5052474;28;20192;-69
2021/07/30 10:00:13;;;;;;;9.13;4.40;;;14.10;95.20;;;;;;5051287;28;20172;-69
2021/07/30 10:02:48;;;;;;;10.87;4.57;;;13.80;95.80;;;;;;5052485;28;20247;-69
2021/07/30 10:05:17;;;;;;;10.03;4.33;;;13.70;96.60;;;;;;5052623;28;20203;-68
2021/07/30 10:07:45;;;;;;;9.10;4.43;;;13.60;96.90;;;;;;5053724;28;20192;-68
2021/07/30 10:10:28;;;;;;;6.53;4.03;;;13.50;97.20;;;;;;5051977;28;20582;-68
2021/07/30 10:12:59;;;;;;;11.63;4.97;;;13.40;97.50;;;;;;5052599;28;20222;-67
2021/07/30 10:15:26;;;;;;;11.07;5.37;;;13.30;98.10;;;;;;5059284;28;20265;-67
2021/07/30 10:17:58;;;;;;;11.30;6.20;;;13.20;99.00;;;;;;5052153;28;20172;-68
2021/07/30 10:20:27;;;;;;;16.63;6.50;;;13.10;99.90;;;;;;5052264;28;20267;-67
2021/07/30 10:23:11;;;;;;;10.87;5.37;;;13.00;99.90;;;;;;5051796;28;20180;-67
2021/07/30 10:25:49;;;;;;;10.87;5.57;;;13.00;99.90;;;;;;5053032;28;20183;-67
2021/07/30 10:28:27;;;;;;;14.77;5.73;;;12.90;99.90;;;;;;5049182;28;20657;-66
2021/07/30 10:31:12;;;;;;;12.77;5.23;;;12.90;99.90;;;;;;5052825;28;20852;-66
2021/07/30 10:33:40;;;;;;;7.33;4.80;;;12.80;99.90;;;;;;5052769;28;20219;-65
2021/07/30 10:36:30;;;;;;;14.00;5.40;;;12.80;99.90;;;;;;5051382;28;20568;-67
2021/07/30 10:39:27;;;;;;;8.50;4.73;;;12.70;99.90;;;;;;5040716;28;20238;-66
2021/07/30 10:42:12;;;;;;;8.83;4.53;;;12.80;99.90;;;;;;5046661;28;20645;-66
2021/07/30 10:45:18;;;;;;;10.40;4.67;;;12.70;99.90;;;;;;5052187;28;20254;-70
2021/07/30 10:47:45;;;;;;;9.20;5.03;;;12.70;99.90;;;;;;5042900;28;20184;-70
2021/07/30 10:50:45;;;;;;;13.30;5.30;;;12.70;99.90;;;;;;5051364;28;20640;-69
2021/07/30 10:53:39;;;;;;;8.00;4.70;;;12.60;99.90;;;;;;5051801;28;20642;-68
2021/07/30 10:56:27;;;;;;;8.90;4.97;;;12.60;99.90;;;;;;5046928;28;20239;-67
2021/07/30 10:59:04;;;;;;;10.67;4.77;;;12.50;99.90;;;;;;5051175;28;20160;-69
2021/07/30 11:01:31;;;;;;;9.37;4.23;;;12.40;99.90;;;;;;5051889;28;20634;-67
2021/07/30 11:04:04;;;;;;;10.27;4.73;;;12.40;99.90;;;;;;5051658;28;20209;-68
2021/07/30 11:06:38;;;;;;;7.73;4.60;;;12.40;99.90;;;;;;5051429;28;20187;-66
2021/07/30 11:09:05;;;;;;;10.87;4.27;;;12.40;99.90;;;;;;5051496;28;20180;-68
2021/07/30 11:11:38;;;;;;;12.47;4.90;;;12.40;99.90;;;;;;5055588;28;20187;-68
2021/07/30 11:14:14;;;;;;;11.13;4.50;;;12.40;99.90;;;;;;5052089;28;20719;-68
2021/07/30 11:16:42;;;;;;;7.83;4.53;;;12.40;99.90;;;;;;5051277;28;20273;-66
2021/07/30 11:19:12;;;;;;;11.63;5.20;;;12.30;99.90;;;;;;5051007;28;20172;-66
2021/07/30 11:21:40;;;;;;;9.20;5.13;;;12.40;99.90;;;;;;5043915;28;20187;-68
2021/07/30 11:24:08;;;;;;;13.37;4.50;;;12.30;99.90;;;;;;5055561;28;20187;-68
2021/07/30 11:26:37;;;;;;;12.70;4.40;;;12.30;99.90;;;;;;5055627;28;20180;-68
2021/07/30 11:29:12;;;;;;;9.10;4.27;;;12.30;99.90;;;;;;5054497;28;20607;-68
2021/07/30 11:31:54;;;;;;;12.13;4.50;;;12.30;99.90;;;;;;5054542;28;20226;-68
2021/07/30 11:34:32;;;;;;;15.83;4.97;;;12.40;99.90;;;;;;5057197;28;20206;-67
2021/07/30 11:37:02;;;;;;;8.53;4.40;;;12.40;99.90;;;;;;5055982;28;20260;-68
2021/07/30 11:39:35;;;;;;;23.30;12.40;;;12.40;99.90;;;;;;5062280;28;20183;-68
2021/07/30 11:42:03;;;;;;;17.03;10.10;;;12.50;99.90;;;;;;5063082;28;20184;-67
2021/07/30 11:44:41;;;;;;;9.53;5.23;;;12.60;99.90;;;;;;5071179;28;20191;-68
2021/07/30 11:47:08;;;;;;;12.00;5.13;;;12.60;99.90;;;;;;5072566;28;20641;-66
2021/07/30 11:49:40;;;;;;;9.10;4.83;;;12.60;99.90;;;;;;5074866;28;20205;-68
2021/07/30 11:52:12;;;;;;;8.53;4.10;;;12.60;99.90;;;;;;5073928;28;20308;-68
2021/07/30 11:54:40;;;;;;;11.27;4.43;;;12.60;99.90;;;;;;5073147;28;20225;-67
2021/07/30 11:57:07;;;;;;;7.70;3.87;;;12.70;99.90;;;;;;5073941;28;20215;-68
2021/07/30 11:59:46;;;;;;;9.23;3.70;;;12.70;99.90;;;;;;5065469;28;20649;-67
2021/07/30 12:02:15;;;;;;;8.33;3.77;;;12.70;99.90;;;;;;5058578;28;20176;-69
2021/07/30 12:04:56;;;;;;;11.13;3.03;;;12.80;99.90;;;;;;5054176;28;20184;-68
2021/07/30 12:07:35;;;;;;;6.60;3.33;;;12.90;99.30;;;;;;5058655;28;20692;-67
2021/07/30 12:10:08;;;;;;;6.17;3.17;;;12.90;99.30;;;;;;5044905;28;20180;-68
2021/07/30 12:12:41;;;;;;;11.13;3.50;;;12.90;99.70;;;;;;5051015;28;20187;-66
2021/07/30 12:15:10;;;;;;;8.03;3.10;;;12.90;99.90;;;;;;5047502;28;20191;-69
2021/07/30 12:17:38;;;;;;;7.00;3.30;;;12.90;99.90;;;;;;5057789;28;20195;-67
2021/07/30 12:20:11;;;;;;;6.00;3.13;;;12.90;99.90;;;;;;5053870;28;20261;-66
2021/07/30 12:22:45;;;;;;;7.00;3.20;;;12.90;99.90;;;;;;5054448;28;20207;-68
2021/07/30 12:25:17;;;;;;;7.73;3.30;;;12.90;99.80;;;;;;5055280;28;20176;-68
2021/07/30 12:27:46;;;;;;;6.63;2.90;;;12.90;99.60;;;;;;5059524;28;20275;-68
2021/07/30 12:30:27;;;;;;;6.83;3.37;;;12.80;99.60;;;;;;5065143;28;20711;-67
2021/07/30 12:32:54;;;;;;;7.63;3.30;;;12.80;99.90;;;;;;5052544;28;20220;-68
2021/07/30 12:35:32;;;;;;;8.43;3.70;;;12.80;99.90;;;;;;5047570;28;20259;-66
2021/07/30 12:38:06;;;;;;;7.43;3.43;;;12.80;99.90;;;;;;5050383;28;20221;-67
2021/07/30 12:40:41;;;;;;;5.03;3.37;;;12.80;99.90;;;;;;5053544;28;20192;-68
2021/07/30 12:43:18;;;;;;;9.17;3.53;;;12.80;99.90;;;;;;5053222;28;20194;-69
2021/07/30 12:45:50;;;;;;;11.23;4.00;;;12.70;99.90;;;;;;5062121;28;20592;-68
2021/07/30 12:48:23;;;;;;;9.23;3.93;;;12.70;99.90;;;;;;5056093;28;20199;-68
2021/07/30 12:50:51;;;;;;;9.53;3.60;;;12.70;99.60;;;;;;5052986;28;20187;-70
2021/07/30 12:53:20;;;;;;;9.60;3.90;;;12.70;99.60;;;;;;5053570;28;20176;-67
2021/07/30 12:56:09;;;;;;;5.60;3.57;;;12.70;98.90;;;;;;5053965;28;20211;-67
2021/07/30 12:58:38;;;;;;;6.50;3.00;;;12.70;98.00;;;;;;5052993;28;20208;-67